ADDS TAF Board (Experimental) INFO Settings
IDs: Format: Expanded Condensed

KLAS - Las Vegas/McCarran I, NV, US

Issued at 1120 UTC 29 May 2016
Updated at: 1322 UTC 29 May 2016
Time1256Z 29/14Z 29/15Z 29/16Z 29/17Z 29/18Z 29/19Z 29/20Z 29/21Z 29/22Z 29/23Z 30/00Z 30/01Z 30/02Z
Type OBS PRVL PRVL PRVL PRVL PRVL PRVL PRVL PRVL PRVL PRVL PRVL PRVL PRVL
VIS 10 >6 >6 >6 >6 >6 >6 >6 >6 >6 >6 >6 >6 >6
CIG -- -- -- -- -- -- -- -- -- -- -- -- -- --
Cover FEW SCT SCT SCT SCT SCT SCT SCT SCT SCT SCT SCT SCT SCT
FltCat VFR VFR VFR VFR VFR VFR VFR VFR VFR VFR VFR VFR VFR VFR
WX -- -- -- -- -- -- -- -- -- -- -- -- -- --
WDir 170 VRB VRB VRB VRB VRB VRB 150 150 150 150 150 150 150
WSpd 3 6 6 6 6 6 6 10 10 10 10 10 10 10
WGst -- -- -- -- -- -- -- -- -- -- -- -- -- --
R01/19
XWnd -2 VRB VRB VRB VRB VRB VRB -8 -8 -8 -8 -8 -8 -8
HWnd -2 VRB VRB VRB VRB VRB VRB -6 -6 -6 -6 -6 -6 -6
R07/25
XWnd -3 VRB VRB VRB VRB VRB VRB -9 -9 -9 -9 -9 -9 -9
HWnd 1 VRB VRB VRB VRB VRB VRB 5 5 5 5 5 5 5

NOTE: TEMPO conditions in [brackets]. Keep in mind TEMPO conditions might be better (lower impact) than prevailing conditions.

Raw TAF
KLAS 291120Z 2912/3012 20006KT P6SM FEW150 SCT250
  FM291400 VRB06KT P6SM FEW150 SCT250
  FM292000 15010KT P6SM SCT120 SCT250
  FM300300 20007KT P6SM FEW150 FEW250


Raw METAR
KLAS 291256Z 17003KT 10SM FEW110 22/M03 A2987 RMK AO2 SLP088 T02221033
KLAS 291156Z 22003KT 10SM FEW130 FEW220 23/M03 A2984 RMK AO2 SLP081 T02281028 10267 20222 53007
KLAS 291056Z 20005KT 10SM FEW220 23/M03 A2983 RMK AO2 SLP076 T02281033

METAR Board
Radar Display
Forecast Discussion

TAF Board Legend

Potential Impact
Threat None Slight Moderate High
Visibility (sm) ≥5.1 5.1>X≥3 3>X≥1 <1
Ceiling (100 ft) ≥30.1 30.1>X≥10 10>X≥5 <5
Wind Speed (kt) <10 10≤X<20 20≤X<30 ≥30
Wind Gust (kt) <15 15≤X<25 25≤X<35 ≥35
Weather No Wx Reported VCTS,-TS,-FZRA,SN TS,FZRA +TS,+FZRA,+SN